Flight Track Log - Related Links

Times and Time Zones

All times are in EDT time to prevent confusion due to time zone crossing. See the UPS1121 flight status page for this flight to view local times or setup timezone preferences in your user account.

Time Position Orientation Groundspeed Altitude Reporting Facility
EDT Latitude Longitude Course Direction KTS MPH feet Rate Location/Type
Mon 08:41:41 PM 42.7361 -73.8083 154° Southeast 140 161 1,700  Level Boston Center
Mon 08:42:23 PM 42.7092 -73.7906 154° Southeast 161 185 2,500 2,272 Climbing Boston Center
Mon 08:43:24 PM 42.6744 -73.7364 131° Southeast 212 244 5,600 3,322 Climbing Boston Center
Mon 08:44:24 PM 42.6253 -73.6561 130° Southeast 277 319 9,200 1,985 Climbing Boston Center
Mon 08:45:37 PM 42.5492 -73.5447 133° Southeast 337 388 10,000 378 Climbing Boston Center
Mon 08:46:31 PM 42.4981 -73.4594 129° Southeast 348 400 10,000  Level Boston Center
Mon 08:47:32 PM 42.4239 -73.3569 134° Southeast 351 404 10,000  Level Boston Center
Mon 08:48:33 PM 42.3517 -73.2661 137° Southeast 355 409 10,000  Level Boston Center
Mon 08:49:33 PM 42.2728 -73.2089 152° Southeast 326 375 10,000  Level Boston Center
Mon 08:50:34 PM 42.1961 -73.1492 150° Southeast 315 362 10,000 -595 Level Boston Center
Mon 08:51:34 PM 42.1256 -73.1006 153° Southeast 290 334 8,800 -1,240 Descending Boston Center
Mon 08:52:35 PM 42.0592 -73.0525 152° Southeast 273 314 7,500 -1,328 Descending Boston Center
Mon 08:53:36 PM 41.9947 -73.0100 154° Southeast 260 299 6,100 -1,388 Descending Boston Center
Mon 08:54:36 PM 41.9322 -72.9647 152° Southeast 249 287 4,700 -1,190 Descending Boston Center
Mon 08:55:37 PM 41.8764 -72.9225 151° Southeast 231 266 3,700 -885 Descending Boston Center
Mon 08:56:38 PM 41.8369 -72.8692 135° Southeast 200 230 2,900 -645 Descending Boston Center
Mon 08:57:38 PM 41.8497 -72.8108 74° East 170 196 2,400 -595 Descending Boston Center
Mon 08:58:39 PM 41.8747 -72.7747 47° Northeast 135 155 1,700 -496 Descending Boston Center
Mon 08:59:39 PM 41.8978 -72.7442 45° Northeast 114 131 1,400 -545 Descending Boston Center
Mon 09:00:40 PM 41.9228 -72.7164 40° Northeast 109 125 600 -787 Descending Boston Center

Login

Don't have an account? Register now (free) for customized features, flight alerts, and more!